createdAt,value
2023-07-16T00:00:55.344Z,99328.56
2023-07-16T00:03:23.594Z,99332.50
2023-07-16T00:05:52.701Z,99334.34
2023-07-16T00:08:20.734Z,99324.38
2023-07-16T00:10:49.001Z,99329.97
2023-07-16T00:13:17.428Z,99330.34
2023-07-16T00:15:45.512Z,99325.16
2023-07-16T00:18:13.811Z,99325.59
2023-07-16T00:20:41.913Z,99320.19
2023-07-16T00:23:09.941Z,99322.88
2023-07-16T00:25:38.254Z,99318.72
2023-07-16T00:28:06.252Z,99317.06
2023-07-16T00:30:34.231Z,99324.94
2023-07-16T00:33:02.544Z,99324.94
2023-07-16T00:35:30.600Z,99317.00
2023-07-16T00:37:58.815Z,99314.94
2023-07-16T00:40:26.925Z,99313.94
2023-07-16T00:42:54.850Z,99308.72
2023-07-16T00:45:23.051Z,99308.13
2023-07-16T00:47:51.283Z,99312.03
2023-07-16T00:50:19.695Z,99306.00
2023-07-16T00:52:48.096Z,99305.34
2023-07-16T00:55:17.047Z,99300.38
2023-07-16T00:57:46.228Z,99305.53
2023-07-16T01:00:14.612Z,99306.31
2023-07-16T01:02:42.763Z,99313.16
2023-07-16T01:05:10.890Z,99311.88
2023-07-16T01:07:44.554Z,99304.84
2023-07-16T01:10:13.086Z,99307.56
2023-07-16T01:12:41.439Z,99295.28
2023-07-16T01:15:10.351Z,99296.34
2023-07-16T01:17:41.181Z,99298.59
2023-07-16T01:20:10.072Z,99306.03
2023-07-16T01:23:24.976Z,99300.88
2023-07-16T01:26:16.693Z,99300.88
2023-07-16T01:29:09.716Z,99300.88
2023-07-16T01:31:38.196Z,99300.88
2023-07-16T01:34:08.228Z,99300.88
2023-07-16T01:36:38.818Z,99303.16
2023-07-16T01:39:07.324Z,99304.00
2023-07-16T01:41:35.606Z,99304.78
2023-07-16T01:44:03.848Z,-20205.41
2023-07-16T01:46:31.888Z,126955.25
2023-07-16T01:49:00.000Z,90034.28
2023-07-16T01:51:28.606Z,62174.59
2023-07-16T01:53:56.958Z,62174.59
2023-07-16T01:56:26.157Z,99296.72
2023-07-16T01:58:54.237Z,99295.47
2023-07-16T02:01:23.224Z,99286.97
2023-07-16T02:03:51.428Z,99286.31
2023-07-16T02:06:20.260Z,99290.22
2023-07-16T02:08:50.200Z,99289.63
2023-07-16T02:11:18.601Z,99288.16
2023-07-16T02:13:46.887Z,99292.25
2023-07-16T02:16:15.290Z,99286.88
2023-07-16T02:18:43.829Z,99285.66
2023-07-16T02:21:12.103Z,99285.66
2023-07-16T02:23:40.170Z,99285.47
2023-07-16T02:26:08.259Z,99283.81
2023-07-16T02:28:36.419Z,99284.81
2023-07-16T02:31:05.109Z,99284.19
2023-07-16T02:33:34.372Z,99288.56
2023-07-16T02:36:02.541Z,99279.63
2023-07-16T02:38:30.484Z,99278.56
2023-07-16T02:40:58.893Z,99279.78
2023-07-16T02:43:27.106Z,99282.03
2023-07-16T02:45:55.027Z,99285.13
2023-07-16T02:48:23.609Z,99282.59
2023-07-16T02:50:51.691Z,99283.00
2023-07-16T02:53:19.696Z,99288.41
2023-07-16T02:55:48.135Z,99290.88
2023-07-16T02:58:16.435Z,99283.66
2023-07-16T03:00:45.184Z,99287.81
2023-07-16T03:03:13.559Z,99291.13
2023-07-16T03:05:41.782Z,99291.13
2023-07-16T03:08:09.683Z,99280.34
2023-07-16T03:10:37.963Z,99281.19
2023-07-16T03:13:06.094Z,99281.41
2023-07-16T03:15:34.434Z,99277.66
2023-07-16T03:18:05.148Z,99279.13
2023-07-16T03:20:33.546Z,99273.81
2023-07-16T03:23:02.796Z,99276.09
2023-07-16T03:25:31.029Z,99275.31
2023-07-16T03:27:59.206Z,99275.31
2023-07-16T03:30:27.243Z,99268.91
2023-07-16T03:32:55.548Z,99269.97
2023-07-16T03:35:27.069Z,99268.75
2023-07-16T03:37:55.193Z,99264.41
2023-07-16T03:40:28.713Z,99266.31
2023-07-16T03:42:56.839Z,99263.63
2023-07-16T03:45:26.445Z,99271.72
2023-07-16T03:47:55.308Z,99268.25
2023-07-16T03:50:23.897Z,99263.50
2023-07-16T03:52:51.998Z,99267.47
2023-07-16T03:55:20.936Z,99269.97
2023-07-16T03:57:49.095Z,99268.13
2023-07-16T04:00:17.211Z,99272.34
2023-07-16T04:02:51.004Z,99270.28
2023-07-16T04:05:23.058Z,99280.47
2023-07-16T04:07:53.113Z,99279.84
2023-07-16T04:10:21.330Z,99277.97
2023-07-16T04:12:49.422Z,99279.00
2023-07-16T04:15:17.820Z,99281.28
2023-07-16T04:17:45.909Z,62174.59
2023-07-16T04:20:14.223Z,62174.59
2023-07-16T04:22:42.624Z,99291.50
2023-07-16T04:25:10.591Z,99286.84
2023-07-16T04:27:39.060Z,99293.59
2023-07-16T04:30:08.231Z,99287.63
2023-07-16T04:32:36.271Z,99287.63
2023-07-16T04:35:04.868Z,99282.22
2023-07-16T04:37:33.066Z,99283.84
2023-07-16T04:40:01.192Z,99274.25
2023-07-16T04:42:29.666Z,99279.13
2023-07-16T04:44:57.951Z,99276.78
2023-07-16T04:47:26.048Z,62174.59
2023-07-16T04:49:54.174Z,62174.59
2023-07-16T04:52:22.313Z,99265.69
2023-07-16T04:54:50.335Z,99266.19
2023-07-16T04:57:18.456Z,99266.97
2023-07-16T04:59:46.598Z,99276.28
2023-07-16T05:02:16.657Z,99270.84
2023-07-16T05:04:45.831Z,99264.44
2023-07-16T05:07:14.056Z,99265.41
2023-07-16T05:09:43.658Z,99266.22
2023-07-16T05:12:11.635Z,99271.34
2023-07-16T05:14:49.270Z,99260.81
2023-07-16T05:17:17.564Z,99261.16
2023-07-16T05:19:45.865Z,99262.75
2023-07-16T05:22:14.253Z,99250.69
2023-07-16T05:24:42.197Z,99248.72
2023-07-16T05:27:10.112Z,99242.72
2023-07-16T05:29:38.573Z,99236.03
2023-07-16T05:32:07.293Z,99250.56
2023-07-16T05:34:35.370Z,99239.19
2023-07-16T05:37:03.829Z,99239.06
2023-07-16T05:39:31.894Z,99227.09
2023-07-16T05:41:59.921Z,99231.69
2023-07-16T05:44:28.070Z,99242.31
2023-07-16T05:46:56.110Z,99230.97
2023-07-16T05:50:16.732Z,99225.63
2023-07-16T05:52:44.992Z,99237.25
2023-07-16T05:55:12.916Z,99232.69
2023-07-16T05:57:41.161Z,99236.63
2023-07-16T06:00:10.259Z,99242.47
2023-07-16T06:02:44.960Z,99242.13
2023-07-16T06:05:13.028Z,99236.84
2023-07-16T06:07:41.025Z,99218.44
2023-07-16T06:10:10.186Z,99239.56
2023-07-16T06:12:38.151Z,99228.81
2023-07-16T06:15:07.048Z,99227.97
2023-07-16T06:17:35.634Z,99233.38
2023-07-16T06:20:04.852Z,99225.53
2023-07-16T06:22:33.215Z,99238.53
2023-07-16T06:25:01.681Z,99238.78
2023-07-16T06:27:29.738Z,99228.38
2023-07-16T06:29:57.851Z,99225.47
2023-07-16T06:32:26.068Z,62174.59
2023-07-16T06:34:54.403Z,99230.09
2023-07-16T06:37:24.641Z,99224.97
2023-07-16T06:39:53.855Z,99227.88
2023-07-16T06:42:21.912Z,99225.41
2023-07-16T06:44:50.845Z,99226.97
2023-07-16T06:47:19.263Z,99224.66
2023-07-16T06:49:47.285Z,99214.72
2023-07-16T06:52:29.086Z,99219.66
2023-07-16T06:54:57.411Z,99225.03
2023-07-16T06:57:25.569Z,99222.53
2023-07-16T06:59:54.473Z,99207.47
2023-07-16T07:02:22.572Z,99204.75
2023-07-16T07:04:52.143Z,99204.47
2023-07-16T07:07:20.217Z,99195.72
2023-07-16T07:09:51.324Z,99198.13
2023-07-16T07:12:19.427Z,99198.97
2023-07-16T07:14:49.281Z,99198.69
2023-07-16T07:17:17.538Z,99198.06
2023-07-16T07:19:45.814Z,99195.50
2023-07-16T07:22:14.573Z,99208.03
2023-07-16T07:24:42.878Z,99200.59
2023-07-16T07:27:10.901Z,99204.38
2023-07-16T07:29:39.059Z,99194.84
2023-07-16T07:32:07.909Z,99184.75
2023-07-16T07:34:35.967Z,99187.41
2023-07-16T07:37:04.718Z,99180.97
2023-07-16T07:39:32.984Z,99183.84
2023-07-16T07:42:01.015Z,99174.41
2023-07-16T07:44:29.277Z,99185.38
2023-07-16T07:46:57.411Z,99178.47
2023-07-16T07:49:25.629Z,99182.81
2023-07-16T07:51:53.876Z,99177.31
2023-07-16T07:54:22.022Z,99174.19
2023-07-16T07:56:50.125Z,99182.03
2023-07-16T07:59:18.366Z,99177.63
2023-07-16T08:01:46.554Z,99177.75
2023-07-16T08:04:14.788Z,99177.47
2023-07-16T08:06:43.260Z,99178.59
2023-07-16T08:09:11.503Z,99180.91
2023-07-16T08:11:39.578Z,99174.34
2023-07-16T08:14:07.688Z,99162.16
2023-07-16T08:16:35.854Z,99178.50
2023-07-16T08:19:04.174Z,99181.44
2023-07-16T08:21:34.050Z,99182.41
2023-07-16T08:24:02.019Z,99171.31
2023-07-16T08:26:30.297Z,99191.56
2023-07-16T08:28:58.498Z,99184.97
2023-07-16T08:31:26.697Z,99174.91
2023-07-16T08:33:54.954Z,99180.13
2023-07-16T08:36:23.349Z,99185.25
2023-07-16T08:38:51.597Z,99181.19
2023-07-16T08:41:19.769Z,99174.75
2023-07-16T08:43:49.031Z,99184.75
2023-07-16T08:46:17.705Z,99182.06
2023-07-16T08:48:47.060Z,99181.09
2023-07-16T08:51:17.546Z,99179.66
2023-07-16T08:53:45.990Z,99191.53
2023-07-16T08:56:14.656Z,99196.97
2023-07-16T08:58:46.416Z,99189.53
2023-07-16T09:01:15.038Z,99187.06
2023-07-16T09:03:43.155Z,99195.34
2023-07-16T09:06:11.305Z,99181.56
2023-07-16T09:08:39.512Z,99181.94
2023-07-16T09:11:12.471Z,99168.53
2023-07-16T09:13:46.095Z,99165.38
2023-07-16T09:16:18.110Z,99155.91
2023-07-16T09:18:46.802Z,99164.66
2023-07-16T09:21:15.131Z,99154.06
2023-07-16T09:23:43.754Z,99142.13
2023-07-16T09:26:11.912Z,99146.53
2023-07-16T09:28:40.268Z,99151.31
2023-07-16T09:31:09.452Z,99134.03
2023-07-16T09:33:37.482Z,99141.41
2023-07-16T09:36:06.556Z,99154.50
2023-07-16T09:38:35.988Z,99147.41
2023-07-16T09:41:07.535Z,99155.56
2023-07-16T09:43:37.547Z,99160.78
2023-07-16T09:46:05.538Z,99144.34
2023-07-16T09:48:33.652Z,99145.19
2023-07-16T09:51:01.904Z,99145.56
2023-07-16T09:53:33.108Z,99143.84
2023-07-16T09:56:04.767Z,99153.13
2023-07-16T09:58:33.376Z,99160.28
2023-07-16T10:01:02.673Z,99131.25
2023-07-16T10:03:30.875Z,99133.53
2023-07-16T10:06:09.793Z,99153.28
2023-07-16T10:08:38.141Z,99146.53
2023-07-16T10:11:17.209Z,99141.53
2023-07-16T10:13:50.871Z,99140.41
2023-07-16T10:16:25.914Z,99139.88
2023-07-16T10:18:54.671Z,99141.25
2023-07-16T10:21:26.623Z,99151.09
2023-07-16T10:24:01.264Z,99147.84
2023-07-16T10:26:30.519Z,99140.97
2023-07-16T10:28:58.826Z,99142.97
2023-07-16T10:31:27.733Z,99135.00
2023-07-16T10:34:05.960Z,99124.66
2023-07-16T10:36:41.835Z,99133.50
2023-07-16T10:39:10.178Z,99125.09
2023-07-16T10:41:38.699Z,99112.59
2023-07-16T10:44:10.668Z,99108.84
2023-07-16T10:46:39.013Z,99113.06
2023-07-16T10:49:08.398Z,99114.50
2023-07-16T10:51:38.280Z,99121.88
2023-07-16T10:54:06.665Z,99097.78
2023-07-16T10:56:38.660Z,99098.47
2023-07-16T10:59:08.777Z,99088.91
2023-07-16T11:01:38.001Z,99085.72
2023-07-16T11:04:10.716Z,99094.94
2023-07-16T11:06:38.720Z,99083.31
2023-07-16T11:09:10.818Z,99089.06
2023-07-16T11:11:39.708Z,99081.34
2023-07-16T11:14:09.531Z,99081.44
2023-07-16T11:16:39.412Z,99082.09
2023-07-16T11:19:08.592Z,99082.44
2023-07-16T11:21:37.837Z,99090.75
2023-07-16T11:24:14.990Z,99084.81
2023-07-16T11:26:53.457Z,99076.13
2023-07-16T11:29:25.548Z,99079.81
2023-07-16T11:31:54.265Z,99068.41
2023-07-16T11:34:25.869Z,99096.66
2023-07-16T11:36:54.228Z,99078.81
2023-07-16T11:39:22.410Z,99072.81
2023-07-16T11:42:00.512Z,99085.13
2023-07-16T11:44:36.696Z,99079.72
2023-07-16T11:47:06.747Z,99073.84
2023-07-16T11:49:35.144Z,99070.50
2023-07-16T11:52:04.070Z,99060.06
2023-07-16T11:54:32.314Z,99072.44
2023-07-16T11:57:00.493Z,99073.78
2023-07-16T11:59:28.724Z,99072.38
2023-07-16T12:01:57.008Z,99072.22
2023-07-16T12:04:25.321Z,99074.03
2023-07-16T12:06:53.511Z,99077.06
2023-07-16T12:09:22.158Z,99058.69
2023-07-16T12:11:50.652Z,99077.25
2023-07-16T12:14:19.064Z,99085.06
2023-07-16T12:16:47.754Z,99076.91
2023-07-16T12:19:16.000Z,99070.59
2023-07-16T12:21:44.729Z,99066.22
2023-07-16T12:24:13.357Z,99072.25
2023-07-16T12:26:41.524Z,99074.44
2023-07-16T12:29:09.665Z,99070.34
2023-07-16T12:31:38.412Z,99066.25
2023-07-16T12:34:06.651Z,99067.28
2023-07-16T12:36:34.784Z,99050.09
2023-07-16T12:39:03.526Z,99073.94
2023-07-16T12:41:33.041Z,99064.00
2023-07-16T12:44:01.594Z,99064.78
2023-07-16T12:46:29.909Z,99072.34
2023-07-16T12:48:58.212Z,99067.69
2023-07-16T12:51:26.335Z,99066.94
2023-07-16T12:53:54.759Z,99067.72
2023-07-16T12:56:23.612Z,99064.47
2023-07-16T12:58:51.723Z,99064.06
2023-07-16T13:01:20.135Z,99065.59
2023-07-16T13:03:48.382Z,99065.91
2023-07-16T13:06:17.266Z,99053.69
2023-07-16T13:08:46.690Z,99054.69
2023-07-16T13:11:15.032Z,99053.25
2023-07-16T13:13:45.133Z,99077.94
2023-07-16T13:16:13.324Z,99082.22
2023-07-16T13:18:41.743Z,99085.84
2023-07-16T13:21:09.933Z,99074.66
2023-07-16T13:23:38.457Z,99070.94
2023-07-16T13:26:06.792Z,99084.28
2023-07-16T13:28:34.958Z,99069.78
2023-07-16T13:31:03.497Z,99079.25
2023-07-16T13:33:32.443Z,99065.06
2023-07-16T13:36:05.440Z,99067.16
2023-07-16T13:38:33.781Z,99056.00
2023-07-16T13:41:02.404Z,99063.34
2023-07-16T13:43:30.760Z,99063.03
2023-07-16T13:45:59.118Z,99043.13
2023-07-16T13:48:27.306Z,99039.44
2023-07-16T13:50:55.528Z,99044.44
2023-07-16T13:53:23.751Z,99037.50
2023-07-16T13:55:52.320Z,99040.41
2023-07-16T13:58:20.414Z,99040.25
2023-07-16T14:00:48.678Z,99033.88
2023-07-16T14:03:17.025Z,99023.00
2023-07-16T14:05:45.087Z,99026.66
2023-07-16T14:08:13.605Z,99028.06
2023-07-16T14:10:41.710Z,99009.19
2023-07-16T14:13:09.992Z,99020.31
2023-07-16T14:15:38.307Z,99019.13
2023-07-16T14:18:06.544Z,99019.13
2023-07-16T14:20:35.707Z,99025.75
2023-07-16T14:23:05.018Z,99024.50
2023-07-16T14:25:33.359Z,99020.00
2023-07-16T14:28:01.405Z,99022.38
2023-07-16T14:30:29.719Z,99027.56
2023-07-16T14:32:58.071Z,99003.78
2023-07-16T14:35:36.536Z,99003.41
2023-07-16T14:38:06.902Z,99025.88
2023-07-16T14:40:34.928Z,99018.94
2023-07-16T14:43:08.135Z,99014.91
2023-07-16T14:45:37.206Z,99018.53
2023-07-16T14:48:05.912Z,99023.13
2023-07-16T14:50:34.292Z,99017.66
2023-07-16T14:53:02.607Z,99009.63
2023-07-16T14:55:30.744Z,99013.66
2023-07-16T14:57:59.088Z,99015.19
2023-07-16T15:00:27.125Z,99012.88
2023-07-16T15:02:55.204Z,99013.81
2023-07-16T15:05:23.457Z,99016.66
2023-07-16T15:07:51.453Z,99017.16
2023-07-16T15:10:19.524Z,99012.38
2023-07-16T15:12:47.670Z,99011.63
2023-07-16T15:15:15.813Z,99003.09
2023-07-16T15:17:44.571Z,99008.22
2023-07-16T15:20:13.563Z,98996.38
2023-07-16T15:22:42.241Z,99002.09
2023-07-16T15:25:10.928Z,99008.97
2023-07-16T15:27:39.881Z,99004.06
2023-07-16T15:30:09.276Z,99015.94
2023-07-16T15:32:38.618Z,99016.41
2023-07-16T15:35:07.393Z,99015.44
2023-07-16T15:37:35.528Z,99014.06
2023-07-16T15:40:15.941Z,99018.38
2023-07-16T15:42:44.723Z,99026.06
2023-07-16T15:45:14.307Z,99025.91
2023-07-16T15:47:42.592Z,99018.72
2023-07-16T15:50:11.148Z,99032.75
2023-07-16T15:52:39.671Z,99026.06
2023-07-16T15:55:08.519Z,99027.19
2023-07-16T15:57:36.717Z,99034.69
2023-07-16T16:00:15.778Z,99025.88
2023-07-16T16:02:46.217Z,99028.84
2023-07-16T16:05:16.981Z,99024.94
2023-07-16T16:08:07.878Z,99031.28
2023-07-16T16:10:36.381Z,99043.81
2023-07-16T16:13:04.559Z,99046.41
2023-07-16T16:15:34.253Z,99037.28
2023-07-16T16:18:02.585Z,99023.81
2023-07-16T16:20:30.822Z,99037.03
2023-07-16T16:23:00.677Z,99038.97
2023-07-16T16:25:33.752Z,99033.53
2023-07-16T16:28:06.051Z,99036.94
2023-07-16T16:30:38.468Z,99040.72
2023-07-16T16:33:07.554Z,99045.91
2023-07-16T16:35:43.025Z,99050.84
2023-07-16T16:38:11.953Z,99044.53
2023-07-16T16:40:40.379Z,99050.56
2023-07-16T16:43:08.986Z,99048.38
2023-07-16T16:45:41.302Z,99042.69
2023-07-16T16:48:13.047Z,99036.88
2023-07-16T16:50:41.451Z,99032.91
2023-07-16T16:53:09.692Z,99042.44
2023-07-16T16:55:38.515Z,99040.94
2023-07-16T16:58:06.773Z,99041.19
2023-07-16T17:00:35.042Z,99044.44
2023-07-16T17:03:05.700Z,99043.22
2023-07-16T17:05:34.158Z,99042.66
2023-07-16T17:08:03.678Z,99044.28
2023-07-16T17:10:33.898Z,99050.50
2023-07-16T17:13:02.571Z,99053.44
2023-07-16T17:15:30.904Z,99052.81
2023-07-16T17:18:00.782Z,99053.63
2023-07-16T17:20:29.475Z,99052.63
2023-07-16T17:22:57.784Z,99049.69
2023-07-16T17:25:26.599Z,99059.81
2023-07-16T17:27:55.043Z,99057.66
2023-07-16T17:30:24.775Z,99063.28
2023-07-16T17:32:54.222Z,99067.69
2023-07-16T17:35:22.601Z,99069.28
2023-07-16T17:37:50.981Z,99075.56
2023-07-16T17:40:21.203Z,99078.50
2023-07-16T17:42:50.149Z,99085.94
2023-07-16T17:45:18.478Z,99092.72
2023-07-16T17:47:49.431Z,99109.19
2023-07-16T17:50:17.864Z,99110.09
2023-07-16T17:52:46.242Z,99118.97
2023-07-16T17:55:14.959Z,99122.47
2023-07-16T17:57:43.512Z,99126.78
2023-07-16T18:00:24.230Z,99130.75
2023-07-16T18:02:54.272Z,99131.09
2023-07-16T18:05:22.800Z,99127.06
2023-07-16T18:07:53.032Z,99134.31
2023-07-16T18:10:21.975Z,99130.75
2023-07-16T18:12:50.692Z,99131.66
2023-07-16T18:15:20.794Z,99132.47
2023-07-16T18:17:50.665Z,99127.28
2023-07-16T18:20:20.741Z,99127.34
2023-07-16T18:22:49.986Z,99132.28
2023-07-16T18:25:18.806Z,99139.47
2023-07-16T18:27:47.006Z,99134.28
2023-07-16T18:30:15.360Z,99148.84
2023-07-16T18:32:45.297Z,99147.75
2023-07-16T18:35:13.698Z,99148.88
2023-07-16T18:37:41.891Z,99159.25
2023-07-16T18:40:11.967Z,99158.13
2023-07-16T18:42:40.099Z,99163.88
2023-07-16T18:45:10.182Z,99162.47
2023-07-16T18:47:38.902Z,99166.75
2023-07-16T18:50:10.616Z,99170.81
2023-07-16T18:52:38.980Z,99169.75
2023-07-16T18:55:08.572Z,99173.00
2023-07-16T18:57:36.971Z,99174.09
2023-07-16T19:00:08.273Z,99180.13
2023-07-16T19:02:36.963Z,99177.66
2023-07-16T19:05:05.411Z,99195.75
2023-07-16T19:07:34.018Z,99204.44
2023-07-16T19:10:02.343Z,99206.00
2023-07-16T19:12:30.596Z,99208.88
2023-07-16T19:15:03.246Z,99210.44
2023-07-16T19:17:31.955Z,62174.59
2023-07-16T19:20:00.363Z,62174.59
2023-07-16T19:22:30.254Z,62174.59
2023-07-16T19:24:58.528Z,62174.59
2023-07-16T19:27:27.068Z,62174.59
2023-07-16T19:29:56.049Z,62174.59
2023-07-16T19:32:24.357Z,62174.59
2023-07-16T19:34:55.297Z,62174.59
2023-07-16T19:37:23.865Z,62174.59
2023-07-16T19:39:54.373Z,62174.59
2023-07-16T19:42:24.036Z,62174.59
2023-07-16T19:44:54.080Z,62174.59
2023-07-16T19:47:22.249Z,62174.59
2023-07-16T19:49:51.269Z,62174.59
2023-07-16T19:52:20.162Z,62174.59
2023-07-16T19:54:48.855Z,62174.59
2023-07-16T19:57:17.066Z,62174.59
2023-07-16T19:59:45.372Z,62174.59
2023-07-16T20:02:13.859Z,62174.59
2023-07-16T20:04:42.328Z,62174.59
2023-07-16T20:07:12.216Z,62174.59
2023-07-16T20:09:43.551Z,62174.59
2023-07-16T20:12:12.603Z,62174.59
2023-07-16T20:14:40.902Z,62174.59
2023-07-16T20:17:12.198Z,62174.59
2023-07-16T20:19:40.823Z,62174.59
2023-07-16T20:22:11.675Z,62174.59
2023-07-16T20:24:39.714Z,62174.59
2023-07-16T20:27:08.225Z,62174.59
2023-07-16T20:29:37.439Z,62174.59
2023-07-16T20:32:09.678Z,62174.59
2023-07-16T20:34:38.199Z,62174.59
2023-07-16T20:37:07.355Z,62174.59
2023-07-16T20:39:37.603Z,62174.59
2023-07-16T20:42:06.804Z,62174.59
2023-07-16T20:44:37.499Z,62174.59
2023-07-16T20:47:08.379Z,62174.59
2023-07-16T20:49:38.576Z,62174.59
2023-07-16T20:52:07.720Z,62174.59
2023-07-16T20:54:37.715Z,62174.59
2023-07-16T20:57:07.193Z,62174.59
2023-07-16T20:59:35.442Z,62174.59
2023-07-16T21:02:04.372Z,62174.59
2023-07-16T21:04:32.654Z,62174.59
2023-07-16T21:07:00.999Z,62174.59
2023-07-16T21:09:29.518Z,62174.59
2023-07-16T21:11:58.176Z,62174.59
2023-07-16T21:14:27.487Z,62174.59
2023-07-16T21:16:56.176Z,62174.59
2023-07-16T21:19:24.325Z,62174.59
2023-07-16T21:21:52.362Z,62174.59
2023-07-16T21:24:22.468Z,62174.59
2023-07-16T21:26:50.875Z,62174.59
2023-07-16T21:29:19.207Z,62174.59
2023-07-16T21:31:48.050Z,62174.59
2023-07-16T21:34:16.819Z,62174.59
2023-07-16T21:36:45.154Z,62174.59
2023-07-16T21:39:13.720Z,62174.59
2023-07-16T21:41:42.405Z,62174.59
2023-07-16T21:44:10.615Z,62174.59
2023-07-16T21:46:39.530Z,62174.59
2023-07-16T21:49:07.958Z,62174.59
2023-07-16T21:51:36.116Z,62174.59
2023-07-16T21:54:04.351Z,62174.59
2023-07-16T21:56:33.269Z,62174.59
2023-07-16T21:59:01.444Z,62174.59
2023-07-16T22:01:29.823Z,62174.59
2023-07-16T22:03:58.486Z,62174.59
2023-07-16T22:06:26.792Z,62174.59
2023-07-16T22:08:55.052Z,62174.59
2023-07-16T22:11:23.839Z,62174.59
2023-07-16T22:13:53.155Z,62174.59
2023-07-16T22:16:23.600Z,62174.59
2023-07-16T22:18:52.197Z,62174.59
2023-07-16T22:21:21.005Z,62174.59
2023-07-16T22:23:49.383Z,62174.59
2023-07-16T22:26:19.299Z,62174.59
2023-07-16T22:28:47.687Z,62174.59
2023-07-16T22:31:16.848Z,62174.59
2023-07-16T22:33:45.432Z,62174.59
2023-07-16T22:36:14.056Z,62174.59
2023-07-16T22:38:42.608Z,62174.59
2023-07-16T22:41:11.246Z,62174.59
2023-07-16T22:43:39.384Z,62174.59
2023-07-16T22:46:08.514Z,62174.59
2023-07-16T22:48:40.935Z,62174.59
2023-07-16T22:51:09.250Z,62174.59
2023-07-16T22:53:44.285Z,62174.59
2023-07-16T22:56:13.936Z,62174.59
2023-07-16T22:58:42.346Z,62174.59
2023-07-16T23:01:11.343Z,62174.59
2023-07-16T23:03:40.438Z,62174.59
2023-07-16T23:06:08.533Z,62174.59
2023-07-16T23:08:37.286Z,62174.59
2023-07-16T23:11:06.034Z,62174.59
2023-07-16T23:13:34.498Z,62174.59
2023-07-16T23:16:02.997Z,62174.59
2023-07-16T23:18:32.072Z,62174.59
2023-07-16T23:21:00.074Z,62174.59
2023-07-16T23:23:28.579Z,62174.59
2023-07-16T23:25:57.067Z,62174.59
2023-07-16T23:28:25.458Z,62174.59
2023-07-16T23:30:54.243Z,62174.59
2023-07-16T23:33:22.584Z,62174.59
2023-07-16T23:35:50.665Z,62174.59
2023-07-16T23:38:19.218Z,62174.59
2023-07-16T23:40:47.549Z,62174.59
2023-07-16T23:43:15.493Z,62174.59
2023-07-16T23:45:43.508Z,62174.59
2023-07-16T23:48:11.705Z,62174.59
2023-07-16T23:50:41.905Z,62174.59
2023-07-16T23:53:09.977Z,62174.59
2023-07-16T23:55:38.118Z,62174.59
2023-07-16T23:58:06.058Z,62174.59
